createdAt,value
2018-05-15T00:00:53.135Z,18.95
2018-05-15T00:01:52.654Z,18.86
2018-05-15T00:02:53.187Z,18.83
2018-05-15T00:03:53.213Z,18.81
2018-05-15T00:04:53.258Z,18.84
2018-05-15T00:05:53.253Z,18.81
2018-05-15T00:06:53.032Z,18.77
2018-05-15T00:07:53.048Z,18.83
2018-05-15T00:08:53.396Z,18.78
2018-05-15T00:09:53.092Z,18.66
2018-05-15T00:10:53.446Z,18.59
2018-05-15T00:11:53.145Z,18.53
2018-05-15T00:12:53.422Z,18.22
2018-05-15T00:13:53.441Z,18.19
2018-05-15T00:14:53.466Z,18.26
2018-05-15T00:15:53.490Z,18.16
2018-05-15T00:16:53.514Z,18.04
2018-05-15T00:17:53.532Z,17.97
2018-05-15T00:18:53.542Z,17.9
2018-05-15T00:19:53.315Z,18.04
2018-05-15T00:20:53.346Z,18.04
2018-05-15T00:21:53.711Z,17.9
2018-05-15T00:22:53.130Z,18.04
2018-05-15T00:23:53.662Z,18.15
2018-05-15T00:24:53.678Z,18.16
2018-05-15T00:25:53.757Z,18.18
2018-05-15T00:26:53.725Z,18.18
2018-05-15T00:27:53.751Z,18.16
2018-05-15T00:28:53.517Z,18.18
2018-05-15T00:29:53.298Z,18.19
2018-05-15T00:30:53.850Z,18.37
2018-05-15T00:31:53.849Z,18.28
2018-05-15T00:32:53.874Z,18.31
2018-05-15T00:33:53.902Z,18.34
2018-05-15T00:34:53.917Z,18.38
2018-05-15T00:35:53.688Z,18.33
2018-05-15T00:36:53.974Z,18.23
2018-05-15T00:37:53.733Z,18.35
2018-05-15T00:38:53.994Z,18.37
2018-05-15T00:39:53.775Z,18.44
2018-05-15T00:40:53.860Z,18.47
2018-05-15T00:41:54.077Z,18.4
2018-05-15T00:42:54.104Z,18.43
2018-05-15T00:43:54.125Z,18.37
2018-05-15T00:44:54.147Z,18.26
2018-05-15T00:45:53.922Z,18.2
2018-05-15T00:46:54.197Z,18.04
2018-05-15T00:47:53.704Z,17.97
2018-05-15T00:48:54.239Z,17.85
2018-05-15T00:49:54.259Z,17.9
2018-05-15T00:50:54.282Z,17.98
2018-05-15T00:51:54.306Z,18
2018-05-15T00:52:54.326Z,17.92
2018-05-15T00:53:54.348Z,17.95
2018-05-15T00:54:54.375Z,17.86
2018-05-15T00:55:54.442Z,17.94
2018-05-15T00:56:54.446Z,17.72
2018-05-15T00:57:54.189Z,17.65
2018-05-15T00:58:54.210Z,17.64
2018-05-15T00:59:54.485Z,17.56
2018-05-15T01:00:54.310Z,17.48
2018-05-15T01:01:54.532Z,17.59
2018-05-15T01:02:54.562Z,17.65
2018-05-15T01:03:54.574Z,17.8
2018-05-15T01:04:54.607Z,17.82
2018-05-15T01:05:54.621Z,17.89
2018-05-15T01:06:54.650Z,17.97
2018-05-15T01:07:54.428Z,18.01
2018-05-15T01:08:54.436Z,18.01
2018-05-15T01:09:54.459Z,18.11
2018-05-15T01:10:54.694Z,18.11
2018-05-15T01:11:54.757Z,18.11
2018-05-15T01:12:54.787Z,18.19
2018-05-15T01:13:54.803Z,18.2
2018-05-15T01:14:54.318Z,18.23
2018-05-15T01:15:54.898Z,18.26
2018-05-15T01:16:54.876Z,18.18
2018-05-15T01:17:54.882Z,18.16
2018-05-15T01:18:54.905Z,18.22
2018-05-15T01:19:54.678Z,18.23
2018-05-15T01:20:54.702Z,18.19
2018-05-15T01:21:54.993Z,18.07
2018-05-15T01:22:55.009Z,17.95
2018-05-15T01:23:55.045Z,17.9
2018-05-15T01:24:55.071Z,17.89
2018-05-15T01:25:55.073Z,17.95
2018-05-15T01:26:55.113Z,17.95
2018-05-15T01:27:55.122Z,17.83
2018-05-15T01:28:55.143Z,17.83
2018-05-15T01:29:55.185Z,17.64
2018-05-15T01:30:55.389Z,17.45
2018-05-15T01:31:55.211Z,17.42
2018-05-15T01:32:55.234Z,17.54
2018-05-15T01:33:55.254Z,17.54
2018-05-15T01:34:55.277Z,17.52
2018-05-15T01:35:55.045Z,17.51
2018-05-15T01:36:54.813Z,17.52
2018-05-15T01:37:55.095Z,17.51
2018-05-15T01:38:55.114Z,17.48
2018-05-15T01:39:55.396Z,17.48
2018-05-15T01:40:55.411Z,17.52
2018-05-15T01:41:55.433Z,17.34
2018-05-15T01:42:55.454Z,17.34
2018-05-15T01:43:55.484Z,17.2
2018-05-15T01:44:55.507Z,16.99
2018-05-15T01:45:55.317Z,17.08
2018-05-15T01:46:55.296Z,16.72
2018-05-15T01:47:55.571Z,16.76
2018-05-15T01:48:55.582Z,16.79
2018-05-15T01:49:55.347Z,16.84
2018-05-15T01:50:56.823Z,16.75
2018-05-15T01:51:55.655Z,16.57
2018-05-15T01:52:55.676Z,16.43
2018-05-15T01:53:55.694Z,16.42
2018-05-15T01:54:55.718Z,16.41
2018-05-15T01:55:55.487Z,16.41
2018-05-15T01:56:55.508Z,16.41
2018-05-15T01:57:55.785Z,16.39
2018-05-15T01:58:55.809Z,16.39
2018-05-15T01:59:55.574Z,16.39
2018-05-15T02:00:55.651Z,16.54
2018-05-15T02:01:55.872Z,16.42
2018-05-15T02:02:55.387Z,16.51
2018-05-15T02:03:55.660Z,16.54
2018-05-15T02:04:55.938Z,16.41
2018-05-15T02:05:55.966Z,16.23
2018-05-15T02:06:55.983Z,16.33
2018-05-15T02:07:55.493Z,16.35
2018-05-15T02:08:56.036Z,16.35
2018-05-15T02:09:56.044Z,16.31
2018-05-15T02:10:56.074Z,16.04
2018-05-15T02:11:55.835Z,16.04
2018-05-15T02:12:56.107Z,16.15
2018-05-15T02:13:56.132Z,16.21
2018-05-15T02:14:56.171Z,16.23
2018-05-15T02:15:56.250Z,16.28
2018-05-15T02:16:56.197Z,16.28
2018-05-15T02:17:56.212Z,16.31
2018-05-15T02:18:56.231Z,16.41
2018-05-15T02:19:56.003Z,16.41
2018-05-15T02:20:56.277Z,16.36
2018-05-15T02:21:55.789Z,16.29
2018-05-15T02:22:56.332Z,16.16
2018-05-15T02:23:56.342Z,16.15
2018-05-15T02:24:56.108Z,16.23
2018-05-15T02:25:55.874Z,16.26
2018-05-15T02:26:56.404Z,16.23
2018-05-15T02:27:56.426Z,16.33
2018-05-15T02:28:56.451Z,16.38
2018-05-15T02:29:55.965Z,16.35
2018-05-15T02:30:56.550Z,16.29
2018-05-15T02:31:56.524Z,16.21
2018-05-15T02:32:56.539Z,16.23
2018-05-15T02:33:56.578Z,16.24
2018-05-15T02:34:56.582Z,16.1
2018-05-15T02:35:56.604Z,16.13
2018-05-15T02:36:56.626Z,16.16
2018-05-15T02:37:56.649Z,16.05
2018-05-15T02:38:56.664Z,16.02
2018-05-15T02:39:56.688Z,15.95
2018-05-15T02:40:56.455Z,16.02
2018-05-15T02:41:56.486Z,15.95
2018-05-15T02:42:56.246Z,15.97
2018-05-15T02:43:56.777Z,15.94
2018-05-15T02:44:56.285Z,15.98
2018-05-15T02:45:56.924Z,16.02
2018-05-15T02:46:56.586Z,16.13
2018-05-15T02:47:56.350Z,16.09
2018-05-15T02:48:56.620Z,15.94
2018-05-15T02:49:56.647Z,15.94
2018-05-15T02:50:56.666Z,15.83
2018-05-15T02:51:56.953Z,15.84
2018-05-15T02:52:56.717Z,15.88
2018-05-15T02:53:56.993Z,15.86
2018-05-15T02:54:57.006Z,15.9
2018-05-15T02:55:57.037Z,15.97
2018-05-15T02:56:57.083Z,16.01
2018-05-15T02:57:57.067Z,16.02
2018-05-15T02:58:56.837Z,15.94
2018-05-15T02:59:56.858Z,15.77
2018-05-15T03:00:57.140Z,15.73
2018-05-15T03:01:57.157Z,15.75
2018-05-15T03:02:57.176Z,15.86
2018-05-15T03:03:57.208Z,15.73
2018-05-15T03:04:57.230Z,15.86
2018-05-15T03:05:56.989Z,15.82
2018-05-15T03:06:57.258Z,15.83
2018-05-15T03:07:57.389Z,15.7
2018-05-15T03:08:57.046Z,15.75
2018-05-15T03:09:57.326Z,15.57
2018-05-15T03:10:57.342Z,15.59
2018-05-15T03:11:57.383Z,15.67
2018-05-15T03:12:57.149Z,15.77
2018-05-15T03:13:57.153Z,15.61
2018-05-15T03:14:57.456Z,15.7
2018-05-15T03:15:57.199Z,15.79
2018-05-15T03:16:57.465Z,15.75
2018-05-15T03:17:57.479Z,15.83
2018-05-15T03:18:57.499Z,15.77
2018-05-15T03:19:57.529Z,15.79
2018-05-15T03:20:57.553Z,15.86
2018-05-15T03:21:57.563Z,15.76
2018-05-15T03:22:57.083Z,15.79
2018-05-15T03:23:57.607Z,15.72
2018-05-15T03:24:57.376Z,15.73
2018-05-15T03:25:57.397Z,15.76
2018-05-15T03:26:57.689Z,15.73
2018-05-15T03:27:57.708Z,15.84
2018-05-15T03:28:57.727Z,15.7
2018-05-15T03:29:57.496Z,15.79
2018-05-15T03:30:57.786Z,15.76
2018-05-15T03:31:57.797Z,15.83
2018-05-15T03:32:57.558Z,15.84
2018-05-15T03:33:57.843Z,15.82
2018-05-15T03:34:57.864Z,15.82
2018-05-15T03:35:57.878Z,15.79
2018-05-15T03:36:57.651Z,15.82
2018-05-15T03:37:57.663Z,15.77
2018-05-15T03:38:57.428Z,15.88
2018-05-15T03:39:57.726Z,15.7
2018-05-15T03:40:57.978Z,15.79
2018-05-15T03:41:58.001Z,15.8
2018-05-15T03:42:58.026Z,15.7
2018-05-15T03:43:58.050Z,15.72
2018-05-15T03:44:58.072Z,15.75
2018-05-15T03:45:57.831Z,15.82
2018-05-15T03:46:57.896Z,15.86
2018-05-15T03:47:58.120Z,15.76
2018-05-15T03:48:58.141Z,15.9
2018-05-15T03:49:57.911Z,15.98
2018-05-15T03:50:58.207Z,15.88
2018-05-15T03:51:58.213Z,15.9
2018-05-15T03:52:58.237Z,15.95
2018-05-15T03:53:58.256Z,15.95
2018-05-15T03:54:58.286Z,15.94
2018-05-15T03:55:58.041Z,15.92
2018-05-15T03:56:57.810Z,16
2018-05-15T03:57:58.361Z,16.05
2018-05-15T03:58:58.364Z,16.13
2018-05-15T03:59:58.388Z,15.97
2018-05-15T04:00:57.911Z,15.91
2018-05-15T04:01:58.478Z,15.95
2018-05-15T04:02:58.198Z,16.02
2018-05-15T04:03:58.472Z,16.05
2018-05-15T04:04:58.493Z,16.15
2018-05-15T04:05:58.511Z,16.23
2018-05-15T04:06:58.535Z,16.31
2018-05-15T04:07:58.553Z,16.17
2018-05-15T04:08:58.582Z,16.24
2018-05-15T04:09:58.684Z,16.26
2018-05-15T04:10:58.924Z,16.24
2018-05-15T04:11:58.391Z,16.42
2018-05-15T04:12:58.662Z,16.41
2018-05-15T04:13:58.677Z,16.49
2018-05-15T04:14:58.446Z,16.36
2018-05-15T04:15:58.743Z,16.38
2018-05-15T04:16:58.534Z,16.56
2018-05-15T04:17:58.516Z,16.56
2018-05-15T04:18:58.529Z,16.51
2018-05-15T04:19:58.549Z,16.64
2018-05-15T04:20:58.829Z,16.61
2018-05-15T04:21:58.847Z,16.68
2018-05-15T04:22:58.873Z,16.72
2018-05-15T04:23:58.894Z,16.75
2018-05-15T04:24:58.908Z,16.74
2018-05-15T04:25:58.933Z,16.65
2018-05-15T04:26:58.704Z,16.66
2018-05-15T04:27:59.152Z,16.57
2018-05-15T04:28:58.996Z,16.65
2018-05-15T04:29:58.768Z,16.61
2018-05-15T04:30:59.045Z,16.64
2018-05-15T04:31:59.112Z,16.68
2018-05-15T04:32:58.837Z,16.6
2018-05-15T04:33:58.857Z,16.58
2018-05-15T04:34:58.915Z,16.76
2018-05-15T04:35:59.165Z,16.64
2018-05-15T04:36:59.183Z,16.66
2018-05-15T04:37:58.947Z,16.66
2018-05-15T04:38:58.972Z,16.64
2018-05-15T04:39:58.991Z,16.61
2018-05-15T04:40:59.279Z,16.69
2018-05-15T04:41:59.297Z,16.71
2018-05-15T04:42:59.319Z,16.76
2018-05-15T04:43:59.293Z,16.76
2018-05-15T04:44:59.104Z,16.83
2018-05-15T04:45:59.444Z,16.89
2018-05-15T04:46:59.488Z,16.87
2018-05-15T04:47:59.424Z,16.91
2018-05-15T04:48:59.446Z,16.89
2018-05-15T04:49:59.488Z,16.97
2018-05-15T04:50:59.507Z,16.91
2018-05-15T04:51:59.506Z,16.99
2018-05-15T04:52:59.618Z,17.09
2018-05-15T04:53:59.552Z,17.12
2018-05-15T04:54:59.069Z,17.06
2018-05-15T04:55:59.348Z,17.15
2018-05-15T04:56:59.371Z,17.12
2018-05-15T04:57:59.393Z,17.23
2018-05-15T04:58:59.663Z,17.34
2018-05-15T04:59:59.677Z,17.41
2018-05-15T05:00:59.698Z,17.38
2018-05-15T05:01:59.992Z,17.51
2018-05-15T05:02:59.761Z,17.39
2018-05-15T05:03:59.773Z,17.44
2018-05-15T05:04:59.798Z,17.39
2018-05-15T05:05:59.818Z,17.38
2018-05-15T05:06:59.591Z,17.2
2018-05-15T05:07:59.868Z,17.34
2018-05-15T05:08:59.884Z,17.36
2018-05-15T05:09:59.905Z,17.51
2018-05-15T05:10:59.943Z,17.67
2018-05-15T05:11:59.453Z,17.72
2018-05-15T05:12:59.979Z,17.72
2018-05-15T05:13:59.749Z,17.76
2018-05-15T05:14:59.768Z,17.7
2018-05-15T05:15:59.536Z,17.68
2018-05-15T05:17:00.122Z,17.76
2018-05-15T05:17:59.836Z,17.79
2018-05-15T05:19:00.114Z,17.74
2018-05-15T05:20:00.135Z,17.65
2018-05-15T05:21:00.042Z,17.57
2018-05-15T05:22:00.176Z,17.64
2018-05-15T05:23:00.202Z,17.67
2018-05-15T05:23:59.973Z,17.49
2018-05-15T05:25:00.245Z,17.67
2018-05-15T05:26:00.270Z,17.64
2018-05-15T05:26:59.784Z,17.48
2018-05-15T05:28:00.065Z,17.49
2018-05-15T05:29:00.336Z,17.34
2018-05-15T05:30:00.112Z,17.42
2018-05-15T05:31:00.128Z,17.56
2018-05-15T05:31:59.941Z,17.7
2018-05-15T05:33:00.168Z,17.65
2018-05-15T05:34:00.443Z,17.71
2018-05-15T05:35:00.500Z,17.86
2018-05-15T05:36:00.487Z,17.74
2018-05-15T05:37:00.258Z,17.74
2018-05-15T05:38:00.532Z,17.65
2018-05-15T05:39:00.299Z,17.74
2018-05-15T05:40:00.684Z,17.74
2018-05-15T05:41:00.609Z,17.68
2018-05-15T05:42:00.635Z,17.52
2018-05-15T05:43:00.652Z,17.56
2018-05-15T05:44:00.673Z,17.65
2018-05-15T05:45:00.701Z,17.56
2018-05-15T05:46:00.474Z,17.54
2018-05-15T05:47:00.542Z,17.56
2018-05-15T05:48:00.518Z,17.72
2018-05-15T05:49:00.794Z,17.76
2018-05-15T05:50:00.803Z,17.87
2018-05-15T05:51:00.830Z,17.86
2018-05-15T05:52:00.653Z,17.56
2018-05-15T05:53:00.875Z,17.7
2018-05-15T05:54:00.890Z,17.65
2018-05-15T05:55:01.013Z,17.97
2018-05-15T05:56:00.964Z,17.97
2018-05-15T05:57:00.968Z,17.86
2018-05-15T05:58:00.745Z,17.94
2018-05-15T05:59:01.006Z,18.05
2018-05-15T06:00:00.779Z,18.16
2018-05-15T06:01:01.087Z,18.28
2018-05-15T06:02:00.885Z,18.26
2018-05-15T06:03:01.122Z,18.23
2018-05-15T06:04:01.139Z,18.2
2018-05-15T06:05:01.152Z,18.26
2018-05-15T06:06:00.923Z,18.23
2018-05-15T06:07:01.205Z,18.34
2018-05-15T06:08:00.973Z,18.07
2018-05-15T06:09:00.996Z,18.15
2018-05-15T06:10:01.267Z,18.28
2018-05-15T06:11:01.297Z,18.38
2018-05-15T06:12:01.065Z,18.4
2018-05-15T06:13:01.082Z,18.26
2018-05-15T06:14:01.370Z,18.43
2018-05-15T06:15:01.382Z,18.37
2018-05-15T06:16:01.412Z,18.47
2018-05-15T06:17:01.234Z,18.4
2018-05-15T06:18:01.202Z,18.38
2018-05-15T06:19:01.508Z,18.43
2018-05-15T06:20:01.245Z,18.4
2018-05-15T06:21:01.357Z,18.38
2018-05-15T06:22:01.545Z,18.34
2018-05-15T06:23:01.580Z,18.31
2018-05-15T06:24:01.337Z,18.31
2018-05-15T06:25:01.397Z,18.01
2018-05-15T06:26:01.643Z,18.08
2018-05-15T06:27:01.685Z,18.11
2018-05-15T06:28:01.681Z,18.15
2018-05-15T06:29:01.728Z,18.26
2018-05-15T06:30:01.737Z,18.23
2018-05-15T06:31:01.760Z,18.44
2018-05-15T06:32:01.945Z,18.62
2018-05-15T06:33:01.810Z,18.78
2018-05-15T06:34:01.580Z,18.89
2018-05-15T06:35:01.869Z,18.98
2018-05-15T06:36:01.882Z,19.14
2018-05-15T06:37:01.396Z,19.16
2018-05-15T06:38:01.665Z,19.14
2018-05-15T06:39:01.949Z,18.92
2018-05-15T06:40:01.969Z,18.98
2018-05-15T06:41:02.052Z,19
2018-05-15T06:42:01.760Z,18.95
2018-05-15T06:43:01.779Z,18.96
2018-05-15T06:44:02.062Z,19
2018-05-15T06:45:02.089Z,18.98
2018-05-15T06:46:01.859Z,19.02
2018-05-15T06:47:01.927Z,19.16
2018-05-15T06:48:02.161Z,19.34
2018-05-15T06:49:02.176Z,19.33
2018-05-15T06:50:02.212Z,19.36
2018-05-15T06:51:02.232Z,19.48
2018-05-15T06:52:02.053Z,19.51
2018-05-15T06:53:02.282Z,19.62
2018-05-15T06:54:02.300Z,19.58
2018-05-15T06:55:02.335Z,19.71
2018-05-15T06:56:02.130Z,19.86
2018-05-15T06:57:02.385Z,19.99
2018-05-15T06:58:02.161Z,20.07
2018-05-15T06:59:02.424Z,20.09
2018-05-15T07:00:02.201Z,20.22
2018-05-15T07:01:02.473Z,20.02
2018-05-15T07:02:02.499Z,19.88
2018-05-15T07:03:02.525Z,19.85
2018-05-15T07:04:02.294Z,19.96
2018-05-15T07:05:02.585Z,20.03
2018-05-15T07:06:02.340Z,20.07
2018-05-15T07:07:02.669Z,20.21
2018-05-15T07:08:02.645Z,20.29
2018-05-15T07:09:02.671Z,20.28
2018-05-15T07:10:02.436Z,20.32
2018-05-15T07:11:02.714Z,20.36
2018-05-15T07:12:02.741Z,20.47
2018-05-15T07:13:02.768Z,20.52
2018-05-15T07:14:02.976Z,20.55
2018-05-15T07:15:02.307Z,20.5
2018-05-15T07:16:02.583Z,20.41
2018-05-15T07:17:02.862Z,20.41
2018-05-15T07:18:02.636Z,20.55
2018-05-15T07:19:02.411Z,20.36
2018-05-15T07:20:02.934Z,20.44
2018-05-15T07:21:02.708Z,20.48
2018-05-15T07:22:03.063Z,20.62
2018-05-15T07:23:03.008Z,20.74
2018-05-15T07:24:03.047Z,20.77
2018-05-15T07:25:03.060Z,20.82
2018-05-15T07:26:03.088Z,20.85
2018-05-15T07:27:04.315Z,20.99
2018-05-15T07:28:02.884Z,21.02
2018-05-15T07:29:02.902Z,21.02
2018-05-15T07:30:02.937Z,20.96
2018-05-15T07:31:03.201Z,20.93
2018-05-15T07:32:03.217Z,20.97
2018-05-15T07:33:03.369Z,21.11
2018-05-15T07:34:03.270Z,21.2
2018-05-15T07:35:03.297Z,20.97
2018-05-15T07:36:03.070Z,20.93
2018-05-15T07:37:03.141Z,21.05
2018-05-15T07:38:03.374Z,21.15
2018-05-15T07:39:03.403Z,21.25
2018-05-15T07:40:03.421Z,21.15
2018-05-15T07:41:03.466Z,21.02
2018-05-15T07:42:03.693Z,21.03
2018-05-15T07:43:03.591Z,21.18
2018-05-15T07:44:03.032Z,20.99
2018-05-15T07:45:03.315Z,20.72
2018-05-15T07:46:03.336Z,20.69
2018-05-15T07:47:03.609Z,20.78
2018-05-15T07:48:03.644Z,20.9
2018-05-15T07:49:03.728Z,21.05
2018-05-15T07:50:03.689Z,21.02
2018-05-15T07:51:03.474Z,20.99
2018-05-15T07:52:03.542Z,20.93
2018-05-15T07:53:03.511Z,20.95
2018-05-15T07:54:03.792Z,21.03
2018-05-15T07:55:03.812Z,21.15
2018-05-15T07:56:03.836Z,21.27
2018-05-15T07:57:03.357Z,21.06
2018-05-15T07:58:03.644Z,21.14
2018-05-15T07:59:03.909Z,21.32
2018-05-15T08:00:03.674Z,21.42
2018-05-15T08:01:03.774Z,21.36
2018-05-15T08:02:03.844Z,21.27
2018-05-15T08:03:04.013Z,21.35
2018-05-15T08:04:03.777Z,21.14
2018-05-15T08:05:03.806Z,20.92
2018-05-15T08:06:04.085Z,21
2018-05-15T08:07:04.172Z,21.05
2018-05-15T08:08:04.148Z,21.32
2018-05-15T08:09:04.180Z,21.37
2018-05-15T08:10:04.190Z,21.36
2018-05-15T08:11:04.223Z,21.6
2018-05-15T08:12:03.984Z,21.58
2018-05-15T08:13:04.010Z,21.75
2018-05-15T08:14:04.036Z,21.75
2018-05-15T08:15:04.059Z,21.8
2018-05-15T08:16:04.347Z,21.82
2018-05-15T08:17:04.119Z,21.96
2018-05-15T08:18:04.134Z,22.13
2018-05-15T08:19:04.414Z,22.41
2018-05-15T08:20:03.931Z,22.66
2018-05-15T08:21:03.962Z,22.5
2018-05-15T08:22:04.040Z,22.62
2018-05-15T08:23:04.270Z,22.62
2018-05-15T08:24:04.549Z,22.81
2018-05-15T08:25:04.578Z,22.9
2018-05-15T08:26:04.353Z,22.99
2018-05-15T08:27:04.386Z,23.23
2018-05-15T08:28:04.660Z,23.23
2018-05-15T08:29:04.689Z,23.24
2018-05-15T08:30:04.705Z,23.02
2018-05-15T08:31:04.480Z,23.08
2018-05-15T08:32:04.809Z,23.05
2018-05-15T08:33:04.784Z,23.05
2018-05-15T08:34:04.546Z,22.9
2018-05-15T08:35:04.568Z,22.87
2018-05-15T08:36:04.847Z,22.66
2018-05-15T08:37:04.619Z,22.59
2018-05-15T08:38:04.397Z,22.41
2018-05-15T08:39:04.926Z,22.07
2018-05-15T08:40:04.699Z,21.95
2018-05-15T08:41:04.990Z,22
2018-05-15T08:42:04.500Z,21.93
2018-05-15T08:43:04.780Z,22.06
2018-05-15T08:44:05.062Z,22.18
2018-05-15T08:45:04.842Z,22.29
2018-05-15T08:46:05.116Z,22.36
2018-05-15T08:47:05.147Z,22.13
2018-05-15T08:48:05.176Z,22.17
2018-05-15T08:49:04.939Z,22.02
2018-05-15T08:50:05.218Z,22.06
2018-05-15T08:51:04.739Z,22.06
2018-05-15T08:52:05.034Z,22.1
2018-05-15T08:53:04.791Z,22.17
2018-05-15T08:54:05.091Z,22.32
2018-05-15T08:55:05.099Z,22.44
2018-05-15T08:56:05.121Z,22.54
2018-05-15T08:57:05.159Z,22.81
2018-05-15T08:58:05.188Z,23
2018-05-15T08:59:05.464Z,23.27
2018-05-15T09:00:05.234Z,23.36
2018-05-15T09:01:05.257Z,23.44
2018-05-15T09:02:05.541Z,23.48
2018-05-15T09:03:05.361Z,23.36
2018-05-15T09:04:05.587Z,23.24
2018-05-15T09:05:05.629Z,22.93
2018-05-15T09:06:05.395Z,22.88
2018-05-15T09:07:05.417Z,22.85
2018-05-15T09:08:05.441Z,22.76
2018-05-15T09:09:05.725Z,22.85
2018-05-15T09:10:05.757Z,22.85
2018-05-15T09:11:05.515Z,22.85
2018-05-15T09:12:05.544Z,22.94
2018-05-15T09:13:05.566Z,22.84
2018-05-15T09:14:05.852Z,22.84
2018-05-15T09:15:05.365Z,22.9
2018-05-15T09:16:05.649Z,22.81
2018-05-15T09:17:05.417Z,22.76
2018-05-15T09:18:05.491Z,22.57
2018-05-15T09:19:05.732Z,22.45
2018-05-15T09:20:05.756Z,22.48
2018-05-15T09:21:06.035Z,22.45
2018-05-15T09:22:05.805Z,22.44
2018-05-15T09:23:06.132Z,22.38
2018-05-15T09:24:05.585Z,22.41
2018-05-15T09:25:06.132Z,22.11
2018-05-15T09:26:05.889Z,22.04
2018-05-15T09:27:05.919Z,22.06
2018-05-15T09:28:05.948Z,22.11
2018-05-15T09:29:06.225Z,22.08
2018-05-15T09:30:06.249Z,21.96
2018-05-15T09:31:06.014Z,22.11
2018-05-15T09:32:06.297Z,22.1
2018-05-15T09:33:06.070Z,22.2
2018-05-15T09:34:06.344Z,22.3
2018-05-15T09:35:06.125Z,22.17
2018-05-15T09:36:06.413Z,22.13
2018-05-15T09:37:06.175Z,22.15
2018-05-15T09:38:06.248Z,22.23
2018-05-15T09:39:06.223Z,22.07
2018-05-15T09:40:05.996Z,22.07
2018-05-15T09:41:06.528Z,22.11
2018-05-15T09:42:06.314Z,21.83
2018-05-15T09:43:06.634Z,21.98
2018-05-15T09:44:06.100Z,22.11
2018-05-15T09:45:06.126Z,22.2
2018-05-15T09:46:06.411Z,22.13
2018-05-15T09:47:06.440Z,22.07
2018-05-15T09:48:06.719Z,22.1
2018-05-15T09:49:06.752Z,22.18
2018-05-15T09:50:06.800Z,22.41
2018-05-15T09:51:06.290Z,22.75
2018-05-15T09:52:06.825Z,22.75
2018-05-15T09:53:06.644Z,23.1
2018-05-15T09:54:06.884Z,23.62
2018-05-15T09:55:06.652Z,23.88
2018-05-15T09:56:06.425Z,24.51
2018-05-15T09:57:06.957Z,24.91
2018-05-15T09:58:07.130Z,25.1
2018-05-15T09:59:06.754Z,25.07
2018-05-15T10:00:07.031Z,25.16
2018-05-15T10:01:06.809Z,25.07
2018-05-15T10:02:06.834Z,25.04
2018-05-15T10:03:06.862Z,24.99
2018-05-15T10:04:07.145Z,24.61
2018-05-15T10:05:07.175Z,24.42
2018-05-15T10:06:07.199Z,24.23
2018-05-15T10:07:06.970Z,24.17
2018-05-15T10:08:06.906Z,23.96
2018-05-15T10:09:07.285Z,23.66
2018-05-15T10:10:07.311Z,23.5
2018-05-15T10:11:06.822Z,23.25
2018-05-15T10:12:07.360Z,22.98
2018-05-15T10:13:07.451Z,22.65
2018-05-15T10:14:07.481Z,22.3
2018-05-15T10:15:07.435Z,21.69
2018-05-15T10:16:07.468Z,21.14
2018-05-15T10:17:07.236Z,20.11
2018-05-15T10:18:07.513Z,19.63
2018-05-15T10:19:07.538Z,19.21
2018-05-15T10:20:07.736Z,19.09
2018-05-15T10:21:07.596Z,18.75
2018-05-15T10:22:07.365Z,18.55
2018-05-15T10:23:07.639Z,18.38
2018-05-15T10:24:07.413Z,18.4
2018-05-15T10:25:07.438Z,18.18
2018-05-15T10:26:07.721Z,17.97
2018-05-15T10:27:07.756Z,17.65
2018-05-15T10:28:07.904Z,17.57
2018-05-15T10:29:07.797Z,17.49
2018-05-15T10:30:07.303Z,17.38
2018-05-15T10:31:07.835Z,17.29
2018-05-15T10:32:07.607Z,17.23
2018-05-15T10:33:07.858Z,17.24
2018-05-15T10:34:07.912Z,17.15
2018-05-15T10:35:07.687Z,17.26
2018-05-15T10:36:07.959Z,17.04
2018-05-15T10:37:07.981Z,17.12
2018-05-15T10:38:08.001Z,17.01
2018-05-15T10:39:08.018Z,16.87
2018-05-15T10:40:07.787Z,16.75
2018-05-15T10:41:08.075Z,16.9
2018-05-15T10:42:08.089Z,16.93
2018-05-15T10:43:08.156Z,16.89
2018-05-15T10:44:08.094Z,16.75
2018-05-15T10:45:07.900Z,16.66
2018-05-15T10:46:08.228Z,16.54
2018-05-15T10:47:07.938Z,16.49
2018-05-15T10:48:08.231Z,16.46
2018-05-15T10:49:07.990Z,16.15
2018-05-15T10:50:08.272Z,16.16
2018-05-15T10:51:08.287Z,16.13
2018-05-15T10:52:08.313Z,16.24
2018-05-15T10:53:08.332Z,16.33
2018-05-15T10:54:08.356Z,16.32
2018-05-15T10:55:08.376Z,16.31
2018-05-15T10:56:08.399Z,16.28
2018-05-15T10:57:08.427Z,16.36
2018-05-15T10:58:08.593Z,16.32
2018-05-15T10:59:08.471Z,16.33
2018-05-15T11:00:08.244Z,16.42
2018-05-15T11:01:08.512Z,16.56
2018-05-15T11:02:08.271Z,16.65
2018-05-15T11:03:08.547Z,16.75
2018-05-15T11:04:08.579Z,16.79
2018-05-15T11:05:08.593Z,17.02
2018-05-15T11:06:08.145Z,17.02
2018-05-15T11:07:08.638Z,17.06
2018-05-15T11:08:08.662Z,17.23
2018-05-15T11:09:08.684Z,17.34
2018-05-15T11:10:08.712Z,17.27
2018-05-15T11:11:08.218Z,17.34
2018-05-15T11:12:08.756Z,17.45
2018-05-15T11:13:08.827Z,17.46
2018-05-15T11:14:08.804Z,17.51
2018-05-15T11:15:08.816Z,17.59
2018-05-15T11:16:08.333Z,17.56
2018-05-15T11:17:08.863Z,17.59
2018-05-15T11:18:08.632Z,17.67
2018-05-15T11:19:08.663Z,17.71
2018-05-15T11:20:08.676Z,17.76
2018-05-15T11:21:08.948Z,17.86
2018-05-15T11:22:08.464Z,17.98
2018-05-15T11:23:09.117Z,18
2018-05-15T11:24:09.023Z,18.15
2018-05-15T11:25:08.787Z,18.18
2018-05-15T11:26:09.071Z,18.23
2018-05-15T11:27:09.085Z,18.22
2018-05-15T11:28:09.171Z,18.25
2018-05-15T11:29:08.881Z,18.37
2018-05-15T11:30:09.170Z,18.41
2018-05-15T11:31:09.184Z,18.55
2018-05-15T11:32:09.207Z,18.62
2018-05-15T11:33:09.376Z,18.66
2018-05-15T11:34:08.997Z,18.73
2018-05-15T11:35:08.782Z,18.89
2018-05-15T11:36:09.523Z,18.9
2018-05-15T11:37:09.068Z,18.98
2018-05-15T11:38:09.089Z,19.08
2018-05-15T11:39:09.370Z,19.3
2018-05-15T11:40:09.388Z,19.51
2018-05-15T11:41:09.413Z,19.58
2018-05-15T11:42:09.436Z,19.58
2018-05-15T11:43:09.201Z,19.77
2018-05-15T11:44:09.479Z,19.94
2018-05-15T11:45:09.509Z,20.09
2018-05-15T11:46:09.518Z,20.25
2018-05-15T11:47:09.546Z,20.34
2018-05-15T11:48:11.373Z,20.56
2018-05-15T11:49:11.383Z,20.69
2018-05-15T11:50:13.150Z,20.92
2018-05-15T11:51:13.519Z,21.02
2018-05-15T11:52:11.569Z,21.25
2018-05-15T11:53:13.476Z,21.51
2018-05-15T11:54:09.726Z,21.7
2018-05-15T11:55:09.500Z,21.95
2018-05-15T11:56:09.780Z,22.39
2018-05-15T11:57:09.293Z,22.63
2018-05-15T11:58:09.823Z,22.85
2018-05-15T11:59:09.855Z,23.21
2018-05-15T12:00:09.741Z,23.23
2018-05-15T12:01:09.912Z,23.56
2018-05-15T12:02:09.929Z,23.81
2018-05-15T12:03:09.744Z,23.93
2018-05-15T12:04:10.315Z,24.01
2018-05-15T12:05:09.744Z,24.16
2018-05-15T12:06:09.774Z,24.47
2018-05-15T12:07:10.056Z,24.86
2018-05-15T12:08:10.534Z,25.06
2018-05-15T12:09:09.976Z,25.11
2018-05-15T12:10:09.637Z,25.29
2018-05-15T12:11:10.260Z,25.62
2018-05-15T12:12:09.943Z,25.9
2018-05-15T12:13:10.221Z,26.41
2018-05-15T12:14:10.244Z,26.74
2018-05-15T12:15:09.890Z,27.25
2018-05-15T12:16:10.580Z,27.82
2018-05-15T12:17:10.464Z,28.25
2018-05-15T12:18:10.411Z,28.3
2018-05-15T12:19:09.886Z,28.2
2018-05-15T12:20:10.167Z,27.9
2018-05-15T12:21:10.234Z,27.37
2018-05-15T12:22:10.507Z,27.18
2018-05-15T12:23:10.007Z,27.08
2018-05-15T12:24:10.554Z,26.75
2018-05-15T12:25:10.577Z,26.6
2018-05-15T12:26:10.346Z,26.58
2018-05-15T12:27:10.384Z,26.62
2018-05-15T12:28:10.592Z,26.74
2018-05-15T12:29:10.694Z,27.25
2018-05-15T12:30:10.476Z,27.7
2018-05-15T12:31:10.744Z,28.23
2018-05-15T12:32:10.796Z,28.39
2018-05-15T12:33:10.865Z,28.27
2018-05-15T12:34:10.837Z,28.08
2018-05-15T12:35:10.900Z,28.07
2018-05-15T12:36:10.389Z,27.78
2018-05-15T12:37:10.675Z,27.42
2018-05-15T12:38:10.960Z,26.95
2018-05-15T12:39:10.744Z,26.62
2018-05-15T12:40:11.021Z,26.26
2018-05-15T12:41:11.177Z,25.59
2018-05-15T12:42:11.995Z,24.54
2018-05-15T12:43:10.847Z,24.29
2018-05-15T12:44:10.883Z,24.26
2018-05-15T12:45:11.164Z,24.17
2018-05-15T12:46:10.680Z,23.68
2018-05-15T12:47:11.237Z,23.39
2018-05-15T12:48:11.561Z,22.94
2018-05-15T12:49:11.277Z,22.47
2018-05-15T12:50:10.790Z,21.98
2018-05-15T12:51:11.324Z,21.66
2018-05-15T12:52:11.347Z,21.02
2018-05-15T12:53:11.376Z,20.93
2018-05-15T12:54:11.793Z,20.58
2018-05-15T12:55:11.435Z,20.39
2018-05-15T12:56:10.950Z,20.29